This is the latest recevied weather packets stored in our database for station/object KMASWX. If no packets are shown the sender has not sent any weather packets the latest 10 day(s).
| Time | Temp. | Humidity | Pressure | Rain* | Wind** | Luminosity | Snow |
|---|---|---|---|---|---|---|---|
| 1777479072 | 10° C | 69% | - | 0 mm | - | - | - |
| 1777478765 | 10° C | 71% | - | 0 mm | - | - | - |
| 1777478462 | 9.44° C | 72% | - | 0 mm | - | - | - |
| 1777477851 | 9.44° C | 73% | - | 0 mm | - | - | - |
| 1777477548 | 9.44° C | 74% | - | 0 mm | - | - | - |
| 1777477244 | 9.44° C | 73% | - | 0 mm | - | - | - |
| 1777476937 | 10° C | 70% | - | 0 mm | - | - | - |
| 1777476633 | 10.56° C | 71% | - | 0 mm | - | - | - |
| 1777476330 | 10.56° C | 72% | - | 0 mm | - | - | - |
| 1777476026 | 10° C | 73% | - | 0 mm | - | - | - |
| 1777475719 | 9.44° C | 75% | - | 0 mm | - | - | - |
| 1777475112 | 8.89° C | 78% | - | 0 mm | - | - | - |
| 1777474808 | 8.33° C | 80% | - | 0 mm | - | - | - |
| 1777474200 | 7.22° C | 81% | - | 0 mm | - | - | - |
| 1777473896 | 6.67° C | 82% | - | 0 mm | - | - | - |
| 1777473589 | 6.67° C | 82% | - | 0 mm | - | - | - |
| 1777472675 | 6.11° C | 84% | - | 0 mm | - | - | - |
| 1777472372 | 6.11° C | 84% | - | 0 mm | - | - | - |
| 1777472067 | 6.11° C | 84% | - | 0 mm | - | - | - |
| 1777471457 | 5.56° C | 89% | - | 0 mm | - | - | - |
| 1777471153 | 5° C | 90% | - | 0 mm | - | - | - |
| 1777470845 | 5° C | 90% | - | 0 mm | - | - | - |
| 1777470542 | 4.44° C | 91% | - | 0 mm | - | - | - |
| 1777470238 | 4.44° C | 91% | - | 0 mm | - | - | - |
| 1777469931 | 3.89° C | 91% | - | 0 mm | - | - | - |
* Rain latest 24 hours (hover to see other rain measurements)
** Current wind speed in m/s (hover to see current wind gust speed)